Time;durP1;ratioP1;P1;durP2;ratioP2;P2;SDS_P1;SDS_P2;PMS_P1;PMS_P2;Temp;Humidity;BMP_temperature;BMP_pressure;BME280_temperature;BME280_humidity;BME280_pressure;Samples;Min_cycle;Max_cycle;Signal;HPM_P1;HPM_P2
2022/03/24 00:00:26;;;;;;;10.38;6.75;;;21.00;41.50;;;;;;5007808;28;20477;-64
2022/03/24 00:02:52;;;;;;;9.98;7.30;;;20.90;41.40;;;;;;5007458;28;20393;-63
2022/03/24 00:05:17;;;;;;;8.70;6.93;;;20.90;41.30;;;;;;5007142;28;20041;-63
2022/03/24 00:07:43;;;;;;;8.38;7.43;;;20.90;41.30;;;;;;5008665;28;20386;-63
2022/03/24 00:10:09;;;;;;;9.50;7.38;;;20.90;41.30;;;;;;5007574;28;20045;-63
2022/03/24 00:12:35;;;;;;;8.38;7.20;;;20.90;41.20;;;;;;5007091;28;20128;-63
2022/03/24 00:15:05;;;;;;;7.85;7.05;;;20.90;41.20;;;;;;5007253;28;20081;-64
2022/03/24 00:17:31;;;;;;;8.55;6.95;;;20.90;41.10;;;;;;5007269;28;20551;-64
2022/03/24 00:19:58;;;;;;;7.95;7.15;;;20.90;41.10;;;;;;5006699;28;20919;-62
2022/03/24 00:22:23;;;;;;;10.70;7.07;;;20.90;41.10;;;;;;5007332;28;20045;-64
2022/03/24 00:24:49;;;;;;;7.78;6.85;;;20.80;41.00;;;;;;5007259;28;20042;-64
2022/03/24 00:27:15;;;;;;;7.53;6.65;;;20.80;41.00;;;;;;5006520;28;20037;-65
2022/03/24 00:29:42;;;;;;;7.55;6.80;;;20.80;41.00;;;;;;4989307;28;20532;-63
2022/03/24 00:32:08;;;;;;;7.85;7.05;;;20.80;41.00;;;;;;5007714;28;20049;-64
2022/03/24 00:34:34;;;;;;;8.35;6.95;;;20.80;40.90;;;;;;5007323;28;20091;-64
2022/03/24 00:37:00;;;;;;;8.32;7.53;;;20.90;40.90;;;;;;5005208;28;20054;-62
2022/03/24 00:39:26;;;;;;;7.65;6.88;;;20.90;40.90;;;;;;5005912;28;20034;-63
2022/03/24 00:41:52;;;;;;;9.27;7.68;;;20.90;40.80;;;;;;5007021;28;20089;-63
2022/03/24 00:44:19;;;;;;;8.05;7.35;;;20.80;40.70;;;;;;4986568;28;20082;-64
2022/03/24 00:46:45;;;;;;;8.57;7.78;;;20.80;40.80;;;;;;5006351;28;20613;-64
2022/03/24 00:49:11;;;;;;;9.63;7.50;;;20.80;40.70;;;;;;4986761;28;20038;-65
2022/03/24 00:51:36;;;;;;;8.02;7.30;;;20.80;40.80;;;;;;5007344;28;20089;-64
2022/03/24 00:54:03;;;;;;;8.10;7.30;;;20.80;40.70;;;;;;4988114;28;20045;-64
2022/03/24 00:56:28;;;;;;;8.00;6.93;;;20.80;40.60;;;;;;4986821;28;20049;-64
2022/03/24 00:58:55;;;;;;;8.23;7.35;;;20.80;40.60;;;;;;5006448;28;20076;-63
2022/03/24 01:01:21;;;;;;;9.63;7.80;;;20.80;40.60;;;;;;4987940;28;20046;-63
2022/03/24 01:03:48;;;;;;;9.52;8.23;;;20.70;40.50;;;;;;5006218;28;20132;-63
2022/03/24 01:06:16;;;;;;;8.90;7.75;;;20.70;40.50;;;;;;5006171;28;20041;-65
2022/03/24 01:08:42;;;;;;;8.45;7.55;;;20.70;40.50;;;;;;5005355;28;20034;-64
2022/03/24 01:11:08;;;;;;;8.55;7.75;;;20.70;40.40;;;;;;5006978;28;20044;-63
2022/03/24 01:13:35;;;;;;;8.88;7.55;;;20.70;40.40;;;;;;4971721;28;20034;-64
2022/03/24 01:16:03;;;;;;;9.27;8.38;;;20.70;40.40;;;;;;5005546;28;20132;-64
2022/03/24 01:18:29;;;;;;;9.13;8.15;;;20.70;40.70;;;;;;5005830;28;20041;-63
2022/03/24 01:20:55;;;;;;;8.30;7.45;;;20.70;40.40;;;;;;4970461;28;20444;-63
2022/03/24 01:23:23;;;;;;;8.57;7.78;;;20.70;40.30;;;;;;5006027;28;20432;-63
2022/03/24 01:25:49;;;;;;;8.45;7.65;;;20.70;40.30;;;;;;5004929;28;20030;-63
2022/03/24 01:28:15;;;;;;;8.73;7.93;;;20.70;40.30;;;;;;5005452;28;20128;-65
2022/03/24 01:30:41;;;;;;;9.13;8.07;;;20.70;40.20;;;;;;4987209;28;20117;-65
2022/03/24 01:33:08;;;;;;;10.23;8.25;;;20.70;40.20;;;;;;5004825;28;20072;-64
2022/03/24 01:35:34;;;;;;;9.27;8.48;;;20.70;40.20;;;;;;5005980;28;20069;-63
2022/03/24 01:38:00;;;;;;;9.48;8.05;;;20.70;40.20;;;;;;5003436;28;20544;-64
2022/03/24 01:40:25;;;;;;;8.85;7.97;;;20.70;40.20;;;;;;5004688;28;20041;-65
2022/03/24 01:42:51;;;;;;;9.05;8.15;;;20.60;40.20;;;;;;5004837;28;20053;-63
2022/03/24 01:45:17;;;;;;;9.75;8.70;;;20.60;40.10;;;;;;5003477;28;20041;-64
2022/03/24 01:47:43;;;;;;;12.02;8.35;;;20.60;40.10;;;;;;5002768;28;20041;-64
2022/03/24 01:50:11;;;;;;;9.70;8.07;;;20.60;40.00;;;;;;4985515;28;20093;-63
2022/03/24 01:52:37;;;;;;;9.55;8.43;;;20.60;40.00;;;;;;5004049;28;20149;-63
2022/03/24 01:55:05;;;;;;;9.48;8.35;;;20.60;40.00;;;;;;5005221;28;20125;-63
2022/03/24 01:57:31;;;;;;;9.65;8.18;;;20.60;40.00;;;;;;5004053;28;20095;-64
2022/03/24 01:59:58;;;;;;;8.98;8.07;;;20.60;40.00;;;;;;4986897;28;20042;-63
2022/03/24 02:02:24;;;;;;;9.15;7.93;;;20.60;40.00;;;;;;5004139;28;20111;-63
2022/03/24 02:04:50;;;;;;;10.68;8.02;;;20.60;40.00;;;;;;4987105;28;20049;-63
2022/03/24 02:07:16;;;;;;;8.93;8.13;;;20.60;40.00;;;;;;5003691;28;20072;-64
2022/03/24 02:09:42;;;;;;;8.30;7.57;;;20.60;39.90;;;;;;5005193;28;20489;-65
2022/03/24 02:12:10;;;;;;;8.63;7.80;;;20.60;39.90;;;;;;4986117;28;20042;-63
2022/03/24 02:14:36;;;;;;;9.45;7.88;;;20.60;39.90;;;;;;5004457;28;20125;-63
2022/03/24 02:17:03;;;;;;;9.05;8.23;;;20.60;39.90;;;;;;5003857;28;20080;-65
2022/03/24 02:19:28;;;;;;;9.60;8.70;;;20.60;39.80;;;;;;5004334;28;20053;-63
2022/03/24 02:21:58;;;;;;;10.10;8.48;;;20.60;39.80;;;;;;5002900;28;20072;-63
2022/03/24 02:24:26;;;;;;;9.70;8.77;;;20.50;39.80;;;;;;5002645;28;20108;-63
2022/03/24 02:26:52;;;;;;;9.32;8.38;;;20.60;39.80;;;;;;5004763;28;20049;-63
2022/03/24 02:29:25;;;;;;;9.38;8.32;;;20.50;39.80;;;;;;4985814;28;20041;-65
2022/03/24 02:31:51;;;;;;;8.73;7.72;;;20.60;39.80;;;;;;4986305;28;20042;-64
2022/03/24 02:34:38;;;;;;;9.57;8.68;;;20.50;39.70;;;;;;5003220;28;20037;-63
2022/03/24 02:37:09;;;;;;;9.00;8.10;;;20.60;39.70;;;;;;5002624;28;20687;-63
2022/03/24 02:39:38;;;;;;;8.75;7.95;;;20.50;39.60;;;;;;5003659;28;20030;-63
2022/03/24 02:42:05;;;;;;;9.18;8.25;;;20.50;39.60;;;;;;5002497;28;20046;-63
2022/03/24 02:44:31;;;;;;;9.13;8.32;;;20.50;39.60;;;;;;5001338;28;20038;-63
2022/03/24 02:46:59;;;;;;;9.48;8.25;;;20.50;39.60;;;;;;5004133;28;20049;-65
2022/03/24 02:49:27;;;;;;;9.50;8.60;;;20.50;39.60;;;;;;5002463;28;20525;-63
2022/03/24 02:51:54;;;;;;;9.38;8.48;;;20.50;39.60;;;;;;5003257;28;20046;-65
2022/03/24 02:54:21;;;;;;;9.98;8.98;;;20.50;39.60;;;;;;5003277;28;20401;-64
2022/03/24 02:56:47;;;;;;;10.25;9.35;;;20.50;39.60;;;;;;5003667;28;20436;-63
2022/03/24 02:59:14;;;;;;;9.80;8.88;;;20.50;39.60;;;;;;5003499;28;20087;-63
2022/03/24 03:01:42;;;;;;;10.45;8.63;;;20.40;39.60;;;;;;4997898;28;20180;-64
2022/03/24 03:04:12;;;;;;;9.82;8.93;;;20.50;39.60;;;;;;5000168;28;20111;-64
2022/03/24 03:06:38;;;;;;;9.55;8.63;;;20.50;39.60;;;;;;5000918;28;20550;-64
2022/03/24 03:09:05;;;;;;;9.90;8.95;;;20.50;39.60;;;;;;5002952;28;20046;-66
2022/03/24 03:11:31;;;;;;;10.38;9.40;;;20.40;39.60;;;;;;5001965;28;20037;-65
2022/03/24 03:13:58;;;;;;;10.02;9.02;;;20.40;39.50;;;;;;5002069;28;20428;-63
2022/03/24 03:16:24;;;;;;;10.45;8.85;;;20.40;39.50;;;;;;4984602;28;20909;-64
2022/03/24 03:18:50;;;;;;;14.20;9.38;;;20.40;39.50;;;;;;5002356;28;20140;-64
2022/03/24 03:21:16;;;;;;;9.95;9.00;;;20.40;39.50;;;;;;4998745;28;20454;-64
2022/03/24 03:23:43;;;;;;;10.10;9.02;;;20.40;39.50;;;;;;5002335;28;20065;-63
2022/03/24 03:26:15;;;;;;;11.85;9.38;;;20.40;39.40;;;;;;5003081;28;20038;-65
2022/03/24 03:28:41;;;;;;;9.45;8.65;;;20.40;39.40;;;;;;4983550;28;20667;-63
2022/03/24 03:31:06;;;;;;;9.95;9.05;;;20.40;39.40;;;;;;5002368;28;20053;-64
2022/03/24 03:33:32;;;;;;;9.38;8.57;;;20.40;39.40;;;;;;5002386;28;20041;-64
2022/03/24 03:35:59;;;;;;;9.80;8.88;;;20.40;39.40;;;;;;5000109;28;20058;-63
2022/03/24 03:38:24;;;;;;;9.38;8.43;;;20.40;39.30;;;;;;4988137;28;20676;-64
2022/03/24 03:40:52;;;;;;;10.48;9.38;;;20.40;39.40;;;;;;4990194;28;20056;-64
2022/03/24 03:43:17;;;;;;;10.05;9.05;;;20.40;39.30;;;;;;4971645;28;20046;-63
2022/03/24 03:45:44;;;;;;;10.07;9.10;;;20.40;39.30;;;;;;4988005;28;20506;-63
2022/03/24 03:48:10;;;;;;;10.10;9.10;;;20.40;39.30;;;;;;4988725;28;20049;-63
2022/03/24 03:50:36;;;;;;;10.48;9.48;;;20.40;39.30;;;;;;4971717;28;20610;-63
2022/03/24 03:53:02;;;;;;;9.80;8.75;;;20.40;39.30;;;;;;4989876;28;20041;-63
2022/03/24 03:55:28;;;;;;;9.68;8.68;;;20.40;39.20;;;;;;4991554;28;20080;-64
2022/03/24 03:57:55;;;;;;;10.95;9.85;;;20.30;39.20;;;;;;4970810;28;20078;-63
2022/03/24 04:03:05;;;;;;;10.52;9.43;;;20.40;39.20;;;;;;4986588;28;20137;-64
2022/03/24 04:05:32;;;;;;;10.63;9.52;;;20.40;39.20;;;;;;4988638;28;20042;-63
2022/03/24 04:07:58;;;;;;;9.70;8.68;;;20.30;39.10;;;;;;4989040;28;20675;-64
2022/03/24 04:10:26;;;;;;;10.30;9.40;;;20.30;39.10;;;;;;4990193;28;20125;-64
2022/03/24 04:12:51;;;;;;;12.90;10.40;;;20.30;39.10;;;;;;4988586;28;20038;-64
2022/03/24 04:15:17;;;;;;;10.02;9.02;;;20.30;39.10;;;;;;4988465;28;20041;-64
2022/03/24 04:17:43;;;;;;;10.38;9.25;;;20.30;39.10;;;;;;4992925;28;20632;-64
2022/03/24 04:20:10;;;;;;;10.82;9.73;;;20.30;39.00;;;;;;4989362;28;20033;-63
2022/03/24 04:22:36;;;;;;;10.32;9.32;;;20.30;39.00;;;;;;4990974;28;20038;-63
2022/03/24 04:25:05;;;;;;;10.50;9.35;;;20.30;39.00;;;;;;4989483;28;20105;-64
2022/03/24 04:27:30;;;;;;;10.23;9.10;;;20.30;39.00;;;;;;4988751;28;20038;-64
2022/03/24 04:29:56;;;;;;;10.57;9.48;;;20.30;39.00;;;;;;4989689;28;20053;-65
2022/03/24 04:32:21;;;;;;;10.85;9.75;;;20.20;38.90;;;;;;4989542;28;20050;-63
2022/03/24 04:34:47;;;;;;;10.95;9.40;;;20.30;39.00;;;;;;4987248;28;20058;-65
2022/03/24 04:37:12;;;;;;;10.82;9.82;;;20.20;38.90;;;;;;4995652;28;20136;-63
2022/03/24 04:39:38;;;;;;;10.48;9.27;;;20.20;38.90;;;;;;5002062;28;20172;-64
2022/03/24 04:42:06;;;;;;;10.50;9.45;;;20.20;38.90;;;;;;4985007;28;20061;-64
2022/03/24 04:44:32;;;;;;;10.70;9.70;;;20.20;38.90;;;;;;4985665;28;20442;-65
2022/03/24 04:46:58;;;;;;;10.98;9.98;;;20.20;38.90;;;;;;5004119;28;20041;-63
2022/03/24 04:49:24;;;;;;;11.27;10.02;;;20.20;38.80;;;;;;5004355;28;20103;-64
2022/03/24 04:51:49;;;;;;;10.25;9.30;;;20.20;38.80;;;;;;5003995;28;20049;-64
2022/03/24 04:54:15;;;;;;;11.00;9.93;;;20.20;38.80;;;;;;5002762;28;20146;-65
2022/03/24 04:56:41;;;;;;;11.25;10.10;;;20.20;38.80;;;;;;5001763;28;20076;-65
2022/03/24 04:59:06;;;;;;;11.00;10.00;;;20.20;38.90;;;;;;5004881;28;20087;-65
2022/03/24 05:01:32;;;;;;;11.35;10.27;;;20.20;38.80;;;;;;4999980;28;20113;-64
2022/03/24 05:03:58;;;;;;;11.40;10.30;;;20.20;38.80;;;;;;5001046;28;20091;-64
2022/03/24 05:06:23;;;;;;;12.20;10.55;;;20.20;38.70;;;;;;5001428;28;20037;-64
2022/03/24 05:08:50;;;;;;;10.80;9.85;;;20.20;38.70;;;;;;5003411;28;20124;-63
2022/03/24 05:11:16;;;;;;;11.70;10.15;;;20.20;38.70;;;;;;4985249;28;20060;-63
2022/03/24 05:13:41;;;;;;;10.13;9.23;;;20.20;38.70;;;;;;5002289;28;20061;-63
2022/03/24 05:16:07;;;;;;;10.82;9.75;;;20.20;38.70;;;;;;5003307;28;20692;-64
2022/03/24 05:18:33;;;;;;;11.27;10.20;;;20.20;38.70;;;;;;5003580;28;20068;-66
2022/03/24 05:20:58;;;;;;;12.05;10.85;;;20.10;38.60;;;;;;4998915;28;20142;-66
2022/03/24 05:23:24;;;;;;;11.45;10.38;;;20.20;38.70;;;;;;5002389;28;20073;-66
2022/03/24 05:25:49;;;;;;;11.57;10.40;;;20.20;38.70;;;;;;5002617;28;20059;-66
2022/03/24 05:28:18;;;;;;;10.57;9.68;;;20.10;38.60;;;;;;5003073;28;20049;-66
2022/03/24 05:30:44;;;;;;;12.45;10.48;;;20.10;38.70;;;;;;5003442;28;20052;-63
2022/03/24 05:33:09;;;;;;;12.23;11.13;;;20.10;38.80;;;;;;5003672;28;20038;-64
2022/03/24 05:35:35;;;;;;;11.52;10.32;;;20.10;38.80;;;;;;5003790;28;20120;-67
2022/03/24 05:38:04;;;;;;;12.40;11.30;;;20.10;38.80;;;;;;4983130;28;20054;-64
2022/03/24 05:40:31;;;;;;;15.73;11.70;;;20.10;38.90;;;;;;5003818;28;20049;-63
2022/03/24 05:42:56;;;;;;;13.35;12.05;;;20.00;38.90;;;;;;5005495;28;20074;-61
2022/03/24 05:45:22;;;;;;;12.73;11.43;;;20.00;38.80;;;;;;5005070;28;20034;-63
2022/03/24 05:47:47;;;;;;;13.15;11.95;;;20.00;38.90;;;;;;5003411;28;20489;-64
2022/03/24 05:50:13;;;;;;;17.33;12.38;;;20.00;38.90;;;;;;5001950;28;20053;-66
2022/03/24 05:52:40;;;;;;;13.35;11.95;;;20.00;39.80;;;;;;5000913;28;20386;-63
2022/03/24 05:55:06;;;;;;;13.93;12.43;;;20.00;39.10;;;;;;5002827;28;20216;-65
2022/03/24 05:57:32;;;;;;;14.23;12.82;;;20.00;39.20;;;;;;5003290;28;20443;-65
2022/03/24 05:59:58;;;;;;;13.18;11.80;;;20.00;39.30;;;;;;5003792;28;20030;-66
2022/03/24 06:02:25;;;;;;;13.93;12.52;;;20.00;39.40;;;;;;4968110;28;20080;-66
2022/03/24 06:04:52;;;;;;;15.23;12.60;;;20.00;39.40;;;;;;4986339;28;20049;-61
2022/03/24 06:07:18;;;;;;;13.75;12.35;;;20.00;39.40;;;;;;5003036;28;20042;-60
2022/03/24 06:09:45;;;;;;;13.35;12.07;;;20.00;39.60;;;;;;5003437;28;20512;-65
2022/03/24 06:12:12;;;;;;;13.90;12.50;;;20.00;39.70;;;;;;4983262;28;20148;-66
2022/03/24 06:14:40;;;;;;;14.00;12.45;;;20.00;39.60;;;;;;4985711;28;20468;-66
2022/03/24 06:17:06;;;;;;;14.77;13.27;;;20.00;39.70;;;;;;4983688;28;20104;-63
2022/03/24 06:19:35;;;;;;;14.63;13.23;;;20.00;39.80;;;;;;5000324;28;20377;-63
2022/03/24 06:22:04;;;;;;;15.20;13.60;;;20.00;39.70;;;;;;5003179;28;20067;-63
2022/03/24 06:24:31;;;;;;;14.63;13.07;;;20.00;39.80;;;;;;5004527;28;20052;-64
2022/03/24 06:26:57;;;;;;;15.10;13.57;;;20.00;39.90;;;;;;4985542;28;20422;-63
2022/03/24 06:29:22;;;;;;;14.02;12.73;;;20.00;40.10;;;;;;5005128;28;20041;-63
2022/03/24 06:31:48;;;;;;;15.38;13.88;;;20.00;40.10;;;;;;5003097;28;20042;-63
2022/03/24 06:34:15;;;;;;;15.52;13.93;;;20.00;40.10;;;;;;5003378;28;20045;-63
2022/03/24 06:36:41;;;;;;;15.60;14.05;;;19.90;40.10;;;;;;4997671;28;20061;-62
2022/03/24 06:39:07;;;;;;;15.38;13.88;;;20.00;40.20;;;;;;4992108;28;20387;-63
2022/03/24 06:41:32;;;;;;;16.10;14.30;;;20.00;40.30;;;;;;4990207;28;20386;-63
2022/03/24 06:43:59;;;;;;;16.20;14.52;;;19.90;40.20;;;;;;4990460;28;20030;-63
2022/03/24 06:46:26;;;;;;;15.23;13.75;;;20.00;40.30;;;;;;4989906;28;20073;-63
2022/03/24 06:48:52;;;;;;;14.68;13.25;;;20.00;40.30;;;;;;4991121;28;20034;-65
2022/03/24 06:51:18;;;;;;;14.73;13.23;;;20.00;40.30;;;;;;4991322;28;20040;-66
2022/03/24 06:53:44;;;;;;;13.63;12.23;;;20.00;40.20;;;;;;4988080;28;20513;-65
2022/03/24 06:56:10;;;;;;;14.45;12.95;;;20.00;40.50;;;;;;4993512;28;20034;-64
2022/03/24 06:58:35;;;;;;;14.18;12.77;;;20.00;40.60;;;;;;4989846;28;20053;-65
2022/03/24 07:01:02;;;;;;;14.45;13.05;;;20.10;40.50;;;;;;4993949;28;20093;-66
2022/03/24 07:03:28;;;;;;;14.05;12.65;;;20.10;40.40;;;;;;4989514;28;20054;-64
2022/03/24 07:05:54;;;;;;;13.40;12.20;;;20.10;40.30;;;;;;4974229;28;20039;-64
2022/03/24 07:08:19;;;;;;;16.15;12.77;;;20.10;40.30;;;;;;4990585;28;20038;-65
2022/03/24 07:10:46;;;;;;;14.77;12.60;;;20.10;40.30;;;;;;4991456;28;20095;-65
2022/03/24 07:13:11;;;;;;;13.85;12.45;;;20.10;40.30;;;;;;4992874;28;20042;-65
2022/03/24 07:15:37;;;;;;;13.32;12.02;;;20.20;40.30;;;;;;4994441;28;20611;-66
2022/03/24 07:18:03;;;;;;;12.68;11.48;;;20.20;40.40;;;;;;4991778;28;20074;-64
2022/03/24 07:20:28;;;;;;;12.80;11.60;;;20.20;40.40;;;;;;4995135;28;20485;-65
2022/03/24 07:22:57;;;;;;;12.82;11.63;;;20.20;40.40;;;;;;4993533;28;20057;-65
2022/03/24 07:25:23;;;;;;;12.93;11.07;;;20.20;40.40;;;;;;4974685;28;20054;-64
2022/03/24 07:27:49;;;;;;;11.95;10.85;;;20.20;40.30;;;;;;4990272;28;20049;-64
2022/03/24 07:30:15;;;;;;;12.85;11.55;;;20.20;40.40;;;;;;4978983;28;20048;-65
2022/03/24 07:32:42;;;;;;;12.48;11.35;;;20.30;40.50;;;;;;4993130;28;20042;-64
2022/03/24 07:35:08;;;;;;;12.70;11.30;;;20.30;40.40;;;;;;4991489;28;20096;-64
2022/03/24 07:37:35;;;;;;;12.68;11.40;;;20.30;40.30;;;;;;4991634;28;20129;-64
2022/03/24 07:40:01;;;;;;;13.07;11.35;;;20.30;40.30;;;;;;4972434;28;20045;-64
2022/03/24 07:42:27;;;;;;;11.63;10.52;;;20.30;40.40;;;;;;4991822;28;20060;-66
2022/03/24 07:44:53;;;;;;;12.13;10.98;;;20.40;40.30;;;;;;4990981;28;20046;-67
2022/03/24 07:47:19;;;;;;;12.38;11.27;;;20.30;40.30;;;;;;4988648;28;20065;-66
2022/03/24 07:49:46;;;;;;;12.65;11.30;;;20.40;40.40;;;;;;4988987;28;20065;-66
2022/03/24 07:52:13;;;;;;;14.45;11.65;;;20.40;40.20;;;;;;4991324;28;20623;-67
2022/03/24 07:54:57;;;;;;;11.20;10.05;;;20.40;40.30;;;;;;4989523;28;20035;-66
2022/03/24 07:57:30;;;;;;;13.10;11.80;;;20.40;40.30;;;;;;4992244;28;20034;-67
2022/03/24 07:59:57;;;;;;;13.68;12.27;;;20.40;40.30;;;;;;4987268;28;20058;-64
2022/03/24 08:02:23;;;;;;;13.95;12.30;;;20.40;40.20;;;;;;4991358;28;20049;-67
2022/03/24 08:04:49;;;;;;;12.25;11.10;;;20.40;40.20;;;;;;4991025;28;20042;-66
2022/03/24 08:07:15;;;;;;;12.68;10.73;;;20.40;40.10;;;;;;4991956;28;20041;-67
2022/03/24 08:09:40;;;;;;;12.27;11.05;;;20.40;40.10;;;;;;4990998;28;20486;-66
2022/03/24 08:12:08;;;;;;;11.98;10.77;;;20.40;40.20;;;;;;4989017;28;20058;-66
2022/03/24 08:14:34;;;;;;;12.15;10.88;;;20.40;40.20;;;;;;4990875;28;20037;-65
2022/03/24 08:17:00;;;;;;;12.77;11.50;;;20.40;40.10;;;;;;4995453;28;20064;-66
2022/03/24 08:19:25;;;;;;;11.73;10.52;;;20.40;40.00;;;;;;4991363;28;20037;-65
2022/03/24 08:21:51;;;;;;;11.25;10.25;;;20.40;40.10;;;;;;4996578;28;20034;-64
2022/03/24 08:24:17;;;;;;;11.90;10.70;;;20.40;40.30;;;;;;4976035;28;20361;-65
2022/03/24 08:26:42;;;;;;;11.85;10.63;;;20.50;40.30;;;;;;4995439;28;20049;-65
2022/03/24 08:29:08;;;;;;;12.70;11.40;;;20.50;40.30;;;;;;4975321;28;20042;-64
2022/03/24 08:31:33;;;;;;;11.27;10.23;;;20.50;40.40;;;;;;4993398;28;20093;-64
2022/03/24 08:33:59;;;;;;;11.50;10.40;;;20.50;40.40;;;;;;4993891;28;20034;-64
2022/03/24 08:36:25;;;;;;;12.02;10.82;;;20.50;41.20;;;;;;4990817;28;20563;-64
2022/03/24 08:38:51;;;;;;;12.25;10.85;;;20.50;40.40;;;;;;4976780;28;20105;-64
2022/03/24 08:41:16;;;;;;;12.27;11.07;;;20.50;40.40;;;;;;4993996;28;20093;-65
2022/03/24 08:43:42;;;;;;;12.02;10.63;;;20.50;40.40;;;;;;4994599;28;20591;-65
2022/03/24 08:46:09;;;;;;;11.52;10.35;;;20.50;40.40;;;;;;4993355;28;20046;-66
2022/03/24 08:48:35;;;;;;;12.88;10.90;;;20.50;40.50;;;;;;4992816;28;20045;-65
2022/03/24 08:51:02;;;;;;;13.93;10.52;;;20.50;40.50;;;;;;4993452;28;20209;-65
2022/03/24 08:53:27;;;;;;;11.43;10.23;;;20.50;40.60;;;;;;4993374;28;20444;-65
2022/03/24 08:55:55;;;;;;;11.85;10.45;;;20.50;40.70;;;;;;4995702;28;20045;-65
2022/03/24 08:58:21;;;;;;;11.60;10.50;;;20.50;40.70;;;;;;4994769;28;20144;-65
2022/03/24 09:00:47;;;;;;;10.77;9.77;;;20.50;40.70;;;;;;4994519;28;20494;-65
2022/03/24 09:03:13;;;;;;;12.20;9.88;;;20.60;40.80;;;;;;4994442;28;20042;-65
2022/03/24 09:05:38;;;;;;;11.45;10.05;;;20.60;40.80;;;;;;4992861;28;20116;-65
2022/03/24 09:08:04;;;;;;;10.95;9.90;;;20.60;40.80;;;;;;4992880;28;20037;-65
2022/03/24 09:10:30;;;;;;;10.52;9.48;;;20.60;40.80;;;;;;4988761;28;20470;-65
2022/03/24 09:12:57;;;;;;;10.65;9.68;;;20.60;40.80;;;;;;4994922;28;20398;-64
2022/03/24 09:15:23;;;;;;;11.38;10.18;;;20.60;40.80;;;;;;4994638;28;20405;-65
2022/03/24 09:17:48;;;;;;;9.95;9.05;;;20.60;40.90;;;;;;4988920;28;20042;-63
2022/03/24 09:20:18;;;;;;;10.40;9.35;;;20.60;41.00;;;;;;4992235;28;20034;-63
2022/03/24 09:22:45;;;;;;;10.45;9.13;;;20.60;41.00;;;;;;4992174;28;20053;-65
2022/03/24 09:25:14;;;;;;;10.75;9.35;;;20.60;41.00;;;;;;4974048;28;20065;-64
2022/03/24 09:27:40;;;;;;;11.75;9.55;;;20.60;41.00;;;;;;4995178;28;20058;-61
2022/03/24 09:30:08;;;;;;;10.07;9.07;;;20.60;40.90;;;;;;4995516;28;20579;-66
2022/03/24 09:32:34;;;;;;;10.40;9.10;;;20.60;41.00;;;;;;4960620;28;20069;-63
2022/03/24 09:35:01;;;;;;;9.82;8.77;;;20.60;41.00;;;;;;4988288;28;20063;-64
2022/03/24 09:37:28;;;;;;;11.60;9.43;;;20.60;41.00;;;;;;4998992;28;20046;-64
2022/03/24 09:39:54;;;;;;;9.90;8.95;;;20.70;41.30;;;;;;5003925;28;20037;-64
2022/03/24 09:42:21;;;;;;;10.02;8.65;;;20.70;41.30;;;;;;5002817;28;20519;-63
2022/03/24 09:44:47;;;;;;;10.15;9.23;;;20.70;41.40;;;;;;5003793;28;20511;-66
2022/03/24 09:47:13;;;;;;;10.43;9.38;;;20.70;41.30;;;;;;4985338;28;20045;-64
2022/03/24 09:49:40;;;;;;;9.80;8.80;;;20.70;41.30;;;;;;5003188;28;20640;-64
2022/03/24 09:52:10;;;;;;;11.50;9.65;;;20.70;41.40;;;;;;5001691;28;20042;-65
2022/03/24 09:54:37;;;;;;;12.63;9.48;;;20.70;41.30;;;;;;5004298;28;20129;-64
2022/03/24 09:57:08;;;;;;;10.70;8.88;;;20.70;41.30;;;;;;5001988;28;20048;-63
2022/03/24 09:59:33;;;;;;;9.68;8.77;;;20.70;41.40;;;;;;4985817;28;20420;-66
2022/03/24 10:02:01;;;;;;;10.20;9.20;;;20.70;41.40;;;;;;5002141;28;20041;-63
2022/03/24 10:04:27;;;;;;;9.88;8.52;;;20.70;41.40;;;;;;5002801;28;20041;-63
2022/03/24 10:07:01;;;;;;;8.60;7.70;;;20.70;41.50;;;;;;5000430;28;20041;-63
2022/03/24 10:09:40;;;;;;;9.75;8.75;;;20.70;42.30;;;;;;5004409;28;20045;-64
2022/03/24 10:12:08;;;;;;;9.80;8.90;;;20.70;41.60;;;;;;5003413;28;20193;-66
2022/03/24 10:14:34;;;;;;;9.20;8.10;;;20.70;41.50;;;;;;4985157;28;20145;-65
2022/03/24 10:17:08;;;;;;;11.55;9.13;;;20.70;41.50;;;;;;5002716;28;20030;-64
2022/03/24 10:19:34;;;;;;;9.20;8.32;;;20.80;41.50;;;;;;5003618;28;20065;-62
2022/03/24 10:22:07;;;;;;;9.77;8.18;;;20.70;41.40;;;;;;5004285;28;20038;-61
2022/03/24 10:24:40;;;;;;;9.43;8.27;;;20.80;41.40;;;;;;5004663;28;20686;-61
2022/03/24 10:27:05;;;;;;;8.93;8.13;;;20.80;41.30;;;;;;5004115;28;20050;-62
2022/03/24 10:29:33;;;;;;;9.27;8.30;;;20.80;41.30;;;;;;5004594;28;20034;-65
2022/03/24 10:32:04;;;;;;;10.48;8.48;;;20.80;41.30;;;;;;4984963;28;20046;-64
2022/03/24 10:34:41;;;;;;;8.57;7.70;;;20.80;41.20;;;;;;5004747;28;20030;-65
2022/03/24 10:37:12;;;;;;;10.05;8.23;;;20.80;41.30;;;;;;5003426;28;20090;-64
2022/03/24 10:39:39;;;;;;;9.25;8.27;;;20.80;41.20;;;;;;5005088;28;20069;-64
2022/03/24 10:42:15;;;;;;;9.05;8.10;;;20.80;41.30;;;;;;5002267;28;20088;-64
2022/03/24 10:45:11;;;;;;;10.10;7.70;;;20.80;41.30;;;;;;5002007;28;20469;-66
2022/03/24 10:47:44;;;;;;;8.75;7.90;;;20.80;41.30;;;;;;5001018;28;20053;-65
2022/03/24 10:50:29;;;;;;;8.48;7.55;;;20.80;41.40;;;;;;5004452;28;20053;-66
2022/03/24 10:53:03;;;;;;;8.93;7.75;;;20.80;41.40;;;;;;4987122;28;20037;-65
2022/03/24 10:55:44;;;;;;;8.50;7.50;;;20.80;41.50;;;;;;5006382;28;20042;-65
2022/03/24 10:58:18;;;;;;;10.15;7.03;;;20.80;41.60;;;;;;5004474;28;20072;-65
2022/03/24 11:00:47;;;;;;;7.97;7.18;;;20.80;41.60;;;;;;5005521;28;20033;-66
2022/03/24 11:03:15;;;;;;;9.23;7.55;;;20.80;42.40;;;;;;5003564;28;20100;-67
2022/03/24 11:05:41;;;;;;;7.68;6.78;;;20.80;41.70;;;;;;5005376;28;20042;-66
2022/03/24 11:08:08;;;;;;;8.35;7.45;;;20.80;41.70;;;;;;5004097;28;20521;-65
2022/03/24 11:10:46;;;;;;;6.90;6.30;;;20.80;41.80;;;;;;5003635;28;20050;-64
2022/03/24 11:13:26;;;;;;;8.27;6.60;;;20.80;41.90;;;;;;5003622;28;20482;-64
2022/03/24 11:15:52;;;;;;;9.13;7.55;;;20.80;41.80;;;;;;5004122;28;20050;-64
2022/03/24 11:18:21;;;;;;;7.05;6.43;;;20.80;41.80;;;;;;5003964;28;20038;-64
2022/03/24 11:20:49;;;;;;;7.63;6.80;;;20.80;41.80;;;;;;5005788;28;20049;-64
2022/03/24 11:23:22;;;;;;;8.43;7.03;;;20.80;41.80;;;;;;5003459;28;20532;-69
2022/03/24 11:25:48;;;;;;;7.28;6.35;;;20.80;41.80;;;;;;4984714;28;20562;-68
2022/03/24 11:28:14;;;;;;;8.40;6.03;;;20.80;41.80;;;;;;5002354;28;20046;-68
2022/03/24 11:30:41;;;;;;;9.18;6.35;;;20.80;41.80;;;;;;4984538;28;20224;-68
2022/03/24 11:33:08;;;;;;;7.60;6.30;;;20.80;41.70;;;;;;4983501;28;20512;-69
2022/03/24 11:35:35;;;;;;;6.47;5.80;;;20.80;41.60;;;;;;4983427;28;20038;-68
2022/03/24 11:38:04;;;;;;;8.77;6.57;;;20.80;41.70;;;;;;5004740;28;20053;-65
2022/03/24 11:40:32;;;;;;;8.93;6.47;;;20.80;41.70;;;;;;5004089;28;20101;-66
2022/03/24 11:43:11;;;;;;;13.40;6.35;;;20.80;41.70;;;;;;5004090;28;20406;-67
2022/03/24 11:45:49;;;;;;;12.20;6.10;;;20.90;41.90;;;;;;5003963;28;20103;-64
2022/03/24 11:48:16;;;;;;;9.20;6.00;;;20.80;41.70;;;;;;5003726;28;20044;-64
2022/03/24 11:50:41;;;;;;;8.27;5.65;;;20.80;41.60;;;;;;5006417;28;20049;-64
2022/03/24 11:53:09;;;;;;;8.38;5.90;;;20.90;41.60;;;;;;4990799;28;20127;-64
2022/03/24 11:55:37;;;;;;;6.43;5.82;;;20.80;41.50;;;;;;5006630;28;20084;-65
2022/03/24 11:58:04;;;;;;;7.90;6.13;;;20.90;41.40;;;;;;5007449;28;20133;-64
2022/03/24 12:00:30;;;;;;;7.88;6.03;;;20.80;41.20;;;;;;5006792;28;20061;-65
2022/03/24 12:03:00;;;;;;;7.70;6.13;;;20.90;41.20;;;;;;5007906;28;20635;-64
2022/03/24 12:05:46;;;;;;;9.80;6.70;;;20.90;41.10;;;;;;4988726;28;20084;-64
2022/03/24 12:08:11;;;;;;;9.25;6.45;;;20.90;41.30;;;;;;5005256;28;20116;-67
2022/03/24 12:10:37;;;;;;;10.75;6.35;;;20.90;41.10;;;;;;5004696;28;20355;-65
2022/03/24 12:13:20;;;;;;;8.55;6.38;;;20.90;41.00;;;;;;5007585;28;20068;-65
2022/03/24 12:16:05;;;;;;;10.13;6.07;;;20.90;40.90;;;;;;4988375;28;20058;-66
2022/03/24 12:18:42;;;;;;;8.85;6.40;;;20.90;41.00;;;;;;5005690;28;20464;-64
2022/03/24 12:21:07;;;;;;;9.32;5.80;;;20.90;41.00;;;;;;5005899;28;20046;-67
2022/03/24 12:24:01;;;;;;;7.75;6.30;;;20.90;41.10;;;;;;5006120;28;20034;-65
2022/03/24 12:26:31;;;;;;;9.95;6.15;;;20.90;40.90;;;;;;5005702;28;20073;-65
2022/03/24 12:29:12;;;;;;;8.40;6.10;;;20.90;41.00;;;;;;5007812;28;20125;-65
2022/03/24 12:32:01;;;;;;;10.15;7.00;;;20.90;40.90;;;;;;4989474;28;20133;-64
2022/03/24 12:34:29;;;;;;;8.18;6.20;;;20.90;40.90;;;;;;5007610;28;20046;-65
2022/03/24 12:36:55;;;;;;;11.25;6.43;;;20.90;41.00;;;;;;5000701;28;20076;-64
2022/03/24 12:39:37;;;;;;;6.75;5.68;;;20.90;41.00;;;;;;4990788;28;20042;-64
2022/03/24 12:42:15;;;;;;;7.70;6.05;;;20.90;41.00;;;;;;4995488;28;20046;-64